sensor_id;sensor_type;location;lat;lon;timestamp;P1;durP1;ratioP1;P2;durP2;ratioP2
14766;SDS011;7475;53.558;9.970;2022-12-13T00:01:39;43.90;;;22.63;;
14766;SDS011;7475;53.558;9.970;2022-12-13T00:04:05;44.67;;;23.17;;
14766;SDS011;7475;53.558;9.970;2022-12-13T00:06:33;46.10;;;23.83;;
14766;SDS011;7475;53.558;9.970;2022-12-13T00:08:59;42.03;;;23.33;;
14766;SDS011;7475;53.558;9.970;2022-12-13T00:11:25;47.50;;;24.33;;
14766;SDS011;7475;53.558;9.970;2022-12-13T00:13:50;45.93;;;23.60;;
14766;SDS011;7475;53.558;9.970;2022-12-13T00:16:17;48.97;;;25.37;;
14766;SDS011;7475;53.558;9.970;2022-12-13T00:18:46;46.83;;;24.27;;
14766;SDS011;7475;53.558;9.970;2022-12-13T00:21:14;45.03;;;22.97;;
14766;SDS011;7475;53.558;9.970;2022-12-13T00:23:41;45.13;;;22.83;;
14766;SDS011;7475;53.558;9.970;2022-12-13T00:26:09;49.50;;;24.83;;
14766;SDS011;7475;53.558;9.970;2022-12-13T00:28:37;47.27;;;23.90;;
14766;SDS011;7475;53.558;9.970;2022-12-13T00:31:03;42.33;;;23.47;;
14766;SDS011;7475;53.558;9.970;2022-12-13T00:33:29;45.40;;;24.23;;
14766;SDS011;7475;53.558;9.970;2022-12-13T00:35:55;52.20;;;23.47;;
14766;SDS011;7475;53.558;9.970;2022-12-13T00:38:21;48.87;;;24.03;;
14766;SDS011;7475;53.558;9.970;2022-12-13T00:40:46;49.77;;;24.10;;
14766;SDS011;7475;53.558;9.970;2022-12-13T00:43:12;42.03;;;23.57;;
14766;SDS011;7475;53.558;9.970;2022-12-13T00:45:37;51.03;;;24.80;;
14766;SDS011;7475;53.558;9.970;2022-12-13T00:48:06;48.43;;;24.37;;
14766;SDS011;7475;53.558;9.970;2022-12-13T00:50:31;46.43;;;22.97;;
14766;SDS011;7475;53.558;9.970;2022-12-13T00:52:58;43.03;;;23.30;;
14766;SDS011;7475;53.558;9.970;2022-12-13T00:55:24;44.27;;;23.23;;
14766;SDS011;7475;53.558;9.970;2022-12-13T00:57:50;46.30;;;23.93;;
14766;SDS011;7475;53.558;9.970;2022-12-13T01:00:16;44.37;;;23.27;;
14766;SDS011;7475;53.558;9.970;2022-12-13T01:02:42;45.60;;;23.30;;
14766;SDS011;7475;53.558;9.970;2022-12-13T01:05:07;45.63;;;23.77;;
14766;SDS011;7475;53.558;9.970;2022-12-13T01:07:34;44.47;;;23.60;;
14766;SDS011;7475;53.558;9.970;2022-12-13T01:10:01;46.33;;;23.97;;
14766;SDS011;7475;53.558;9.970;2022-12-13T01:12:26;50.53;;;25.50;;
14766;SDS011;7475;53.558;9.970;2022-12-13T01:14:51;46.30;;;24.40;;
14766;SDS011;7475;53.558;9.970;2022-12-13T01:17:17;44.83;;;23.00;;
14766;SDS011;7475;53.558;9.970;2022-12-13T01:19:42;45.00;;;23.30;;
14766;SDS011;7475;53.558;9.970;2022-12-13T01:22:07;50.27;;;23.50;;
14766;SDS011;7475;53.558;9.970;2022-12-13T01:24:35;46.43;;;24.27;;
14766;SDS011;7475;53.558;9.970;2022-12-13T01:27:00;43.10;;;22.73;;
14766;SDS011;7475;53.558;9.970;2022-12-13T01:29:25;45.80;;;22.70;;
14766;SDS011;7475;53.558;9.970;2022-12-13T01:31:51;52.33;;;27.47;;
14766;SDS011;7475;53.558;9.970;2022-12-13T01:34:18;42.07;;;23.67;;
14766;SDS011;7475;53.558;9.970;2022-12-13T01:36:45;47.37;;;23.33;;
14766;SDS011;7475;53.558;9.970;2022-12-13T01:39:12;46.87;;;24.20;;
14766;SDS011;7475;53.558;9.970;2022-12-13T01:41:39;48.87;;;24.50;;
14766;SDS011;7475;53.558;9.970;2022-12-13T01:44:06;46.90;;;24.63;;
14766;SDS011;7475;53.558;9.970;2022-12-13T01:47:09;47.27;;;23.67;;
14766;SDS011;7475;53.558;9.970;2022-12-13T01:49:35;46.53;;;24.23;;
14766;SDS011;7475;53.558;9.970;2022-12-13T01:52:02;48.20;;;25.50;;
14766;SDS011;7475;53.558;9.970;2022-12-13T01:54:33;48.67;;;24.03;;
14766;SDS011;7475;53.558;9.970;2022-12-13T01:57:03;45.57;;;23.47;;
14766;SDS011;7475;53.558;9.970;2022-12-13T01:59:34;48.30;;;23.40;;
14766;SDS011;7475;53.558;9.970;2022-12-13T02:02:02;49.50;;;24.73;;
14766;SDS011;7475;53.558;9.970;2022-12-13T02:04:29;43.80;;;24.60;;
14766;SDS011;7475;53.558;9.970;2022-12-13T02:06:58;45.33;;;23.17;;
14766;SDS011;7475;53.558;9.970;2022-12-13T02:09:24;44.63;;;23.60;;
14766;SDS011;7475;53.558;9.970;2022-12-13T02:11:50;48.83;;;24.03;;
14766;SDS011;7475;53.558;9.970;2022-12-13T02:14:16;48.47;;;23.50;;
14766;SDS011;7475;53.558;9.970;2022-12-13T02:16:45;41.60;;;22.63;;
14766;SDS011;7475;53.558;9.970;2022-12-13T02:19:51;44.63;;;22.90;;
14766;SDS011;7475;53.558;9.970;2022-12-13T02:22:40;47.73;;;23.97;;
14766;SDS011;7475;53.558;9.970;2022-12-13T02:28:14;47.83;;;23.20;;
14766;SDS011;7475;53.558;9.970;2022-12-13T02:31:03;47.93;;;25.53;;
14766;SDS011;7475;53.558;9.970;2022-12-13T02:33:36;50.60;;;25.10;;
14766;SDS011;7475;53.558;9.970;2022-12-13T02:36:16;40.30;;;21.90;;
14766;SDS011;7475;53.558;9.970;2022-12-13T02:44:11;44.07;;;23.00;;
14766;SDS011;7475;53.558;9.970;2022-12-13T02:46:42;43.10;;;22.97;;
14766;SDS011;7475;53.558;9.970;2022-12-13T02:49:13;43.80;;;21.63;;
14766;SDS011;7475;53.558;9.970;2022-12-13T02:51:40;41.47;;;20.47;;
14766;SDS011;7475;53.558;9.970;2022-12-13T02:54:06;42.27;;;21.63;;
14766;SDS011;7475;53.558;9.970;2022-12-13T02:56:32;39.87;;;21.50;;
14766;SDS011;7475;53.558;9.970;2022-12-13T02:58:57;41.03;;;22.13;;
14766;SDS011;7475;53.558;9.970;2022-12-13T03:04:08;41.17;;;22.43;;
14766;SDS011;7475;53.558;9.970;2022-12-13T03:09:47;42.20;;;21.93;;
14766;SDS011;7475;53.558;9.970;2022-12-13T03:12:19;39.80;;;20.57;;
14766;SDS011;7475;53.558;9.970;2022-12-13T03:18:03;51.90;;;26.90;;
14766;SDS011;7475;53.558;9.970;2022-12-13T03:20:29;36.20;;;20.03;;
14766;SDS011;7475;53.558;9.970;2022-12-13T03:22:55;37.37;;;20.37;;
14766;SDS011;7475;53.558;9.970;2022-12-13T03:25:29;36.30;;;19.57;;
14766;SDS011;7475;53.558;9.970;2022-12-13T03:27:55;39.00;;;20.37;;
14766;SDS011;7475;53.558;9.970;2022-12-13T03:30:20;38.67;;;21.27;;
14766;SDS011;7475;53.558;9.970;2022-12-13T03:32:46;38.77;;;21.10;;
14766;SDS011;7475;53.558;9.970;2022-12-13T03:35:11;34.87;;;19.40;;
14766;SDS011;7475;53.558;9.970;2022-12-13T03:37:36;39.63;;;22.17;;
14766;SDS011;7475;53.558;9.970;2022-12-13T03:40:02;41.47;;;20.20;;
14766;SDS011;7475;53.558;9.970;2022-12-13T03:42:27;37.07;;;20.07;;
14766;SDS011;7475;53.558;9.970;2022-12-13T03:44:53;36.10;;;20.17;;
14766;SDS011;7475;53.558;9.970;2022-12-13T03:47:18;37.10;;;20.50;;
14766;SDS011;7475;53.558;9.970;2022-12-13T03:49:43;35.67;;;19.97;;
14766;SDS011;7475;53.558;9.970;2022-12-13T03:52:08;40.60;;;20.53;;
14766;SDS011;7475;53.558;9.970;2022-12-13T03:54:34;34.30;;;19.67;;
14766;SDS011;7475;53.558;9.970;2022-12-13T03:56:59;37.83;;;20.83;;
14766;SDS011;7475;53.558;9.970;2022-12-13T03:59:25;34.70;;;20.30;;
14766;SDS011;7475;53.558;9.970;2022-12-13T04:01:51;35.83;;;20.30;;
14766;SDS011;7475;53.558;9.970;2022-12-13T04:04:16;37.07;;;20.53;;
14766;SDS011;7475;53.558;9.970;2022-12-13T04:06:41;34.57;;;20.13;;
14766;SDS011;7475;53.558;9.970;2022-12-13T04:09:07;35.47;;;20.50;;
14766;SDS011;7475;53.558;9.970;2022-12-13T04:11:32;40.17;;;20.83;;
14766;SDS011;7475;53.558;9.970;2022-12-13T04:14:16;40.40;;;20.77;;
14766;SDS011;7475;53.558;9.970;2022-12-13T04:16:41;37.07;;;19.73;;
14766;SDS011;7475;53.558;9.970;2022-12-13T04:19:06;41.57;;;22.70;;
14766;SDS011;7475;53.558;9.970;2022-12-13T04:21:32;36.37;;;19.23;;
14766;SDS011;7475;53.558;9.970;2022-12-13T04:23:57;36.13;;;19.80;;
14766;SDS011;7475;53.558;9.970;2022-12-13T04:26:22;38.47;;;20.33;;
14766;SDS011;7475;53.558;9.970;2022-12-13T04:28:47;39.83;;;20.40;;
14766;SDS011;7475;53.558;9.970;2022-12-13T04:31:13;35.90;;;19.10;;
14766;SDS011;7475;53.558;9.970;2022-12-13T04:33:38;36.27;;;20.87;;
14766;SDS011;7475;53.558;9.970;2022-12-13T04:36:06;39.53;;;20.00;;
14766;SDS011;7475;53.558;9.970;2022-12-13T04:38:32;35.33;;;19.93;;
14766;SDS011;7475;53.558;9.970;2022-12-13T04:41:04;39.90;;;21.13;;
14766;SDS011;7475;53.558;9.970;2022-12-13T04:43:30;36.57;;;20.77;;
14766;SDS011;7475;53.558;9.970;2022-12-13T04:45:56;39.63;;;21.67;;
14766;SDS011;7475;53.558;9.970;2022-12-13T04:48:22;40.80;;;21.23;;
14766;SDS011;7475;53.558;9.970;2022-12-13T04:50:48;39.10;;;20.67;;
14766;SDS011;7475;53.558;9.970;2022-12-13T04:53:13;39.50;;;21.23;;
14766;SDS011;7475;53.558;9.970;2022-12-13T04:55:40;39.40;;;20.90;;
14766;SDS011;7475;53.558;9.970;2022-12-13T04:58:05;40.13;;;21.07;;
14766;SDS011;7475;53.558;9.970;2022-12-13T05:00:30;39.83;;;20.70;;
14766;SDS011;7475;53.558;9.970;2022-12-13T05:02:56;37.27;;;20.00;;
14766;SDS011;7475;53.558;9.970;2022-12-13T05:05:21;37.27;;;20.43;;
14766;SDS011;7475;53.558;9.970;2022-12-13T05:07:46;43.30;;;21.83;;
14766;SDS011;7475;53.558;9.970;2022-12-13T05:10:12;38.60;;;20.83;;
14766;SDS011;7475;53.558;9.970;2022-12-13T05:12:45;35.43;;;20.40;;
14766;SDS011;7475;53.558;9.970;2022-12-13T05:15:10;36.33;;;19.40;;
14766;SDS011;7475;53.558;9.970;2022-12-13T05:17:35;32.53;;;19.37;;
14766;SDS011;7475;53.558;9.970;2022-12-13T05:20:01;35.27;;;17.93;;
14766;SDS011;7475;53.558;9.970;2022-12-13T05:22:26;29.90;;;17.43;;
14766;SDS011;7475;53.558;9.970;2022-12-13T05:24:55;31.03;;;17.60;;
14766;SDS011;7475;53.558;9.970;2022-12-13T05:27:20;32.47;;;18.63;;
14766;SDS011;7475;53.558;9.970;2022-12-13T05:29:45;28.33;;;16.67;;
14766;SDS011;7475;53.558;9.970;2022-12-13T05:32:10;27.13;;;16.03;;
14766;SDS011;7475;53.558;9.970;2022-12-13T05:34:36;31.77;;;16.47;;
14766;SDS011;7475;53.558;9.970;2022-12-13T05:37:01;32.23;;;17.63;;
14766;SDS011;7475;53.558;9.970;2022-12-13T05:39:27;26.50;;;14.37;;
14766;SDS011;7475;53.558;9.970;2022-12-13T05:41:52;27.13;;;14.97;;
14766;SDS011;7475;53.558;9.970;2022-12-13T05:44:19;26.50;;;15.03;;
14766;SDS011;7475;53.558;9.970;2022-12-13T05:46:45;29.70;;;15.47;;
14766;SDS011;7475;53.558;9.970;2022-12-13T05:49:10;29.23;;;16.70;;
14766;SDS011;7475;53.558;9.970;2022-12-13T05:51:35;26.93;;;16.07;;
14766;SDS011;7475;53.558;9.970;2022-12-13T05:54:00;27.70;;;16.30;;
14766;SDS011;7475;53.558;9.970;2022-12-13T05:56:26;30.47;;;16.73;;
14766;SDS011;7475;53.558;9.970;2022-12-13T05:58:51;28.97;;;16.67;;
14766;SDS011;7475;53.558;9.970;2022-12-13T06:01:18;32.27;;;17.30;;
14766;SDS011;7475;53.558;9.970;2022-12-13T06:03:43;27.87;;;16.73;;
14766;SDS011;7475;53.558;9.970;2022-12-13T06:06:09;30.87;;;16.80;;
14766;SDS011;7475;53.558;9.970;2022-12-13T06:08:35;30.47;;;16.47;;
14766;SDS011;7475;53.558;9.970;2022-12-13T06:11:02;32.07;;;17.20;;
14766;SDS011;7475;53.558;9.970;2022-12-13T06:13:28;30.10;;;17.10;;
14766;SDS011;7475;53.558;9.970;2022-12-13T06:15:54;29.63;;;16.87;;
14766;SDS011;7475;53.558;9.970;2022-12-13T06:18:24;30.63;;;16.67;;
14766;SDS011;7475;53.558;9.970;2022-12-13T06:20:55;31.00;;;16.57;;
14766;SDS011;7475;53.558;9.970;2022-12-13T06:23:22;27.27;;;15.60;;
14766;SDS011;7475;53.558;9.970;2022-12-13T06:25:48;28.63;;;16.83;;
14766;SDS011;7475;53.558;9.970;2022-12-13T06:28:13;28.93;;;16.27;;
14766;SDS011;7475;53.558;9.970;2022-12-13T06:30:38;31.10;;;16.90;;
14766;SDS011;7475;53.558;9.970;2022-12-13T06:33:04;30.53;;;16.80;;
14766;SDS011;7475;53.558;9.970;2022-12-13T06:35:29;31.57;;;16.87;;
14766;SDS011;7475;53.558;9.970;2022-12-13T06:37:54;29.87;;;16.67;;
14766;SDS011;7475;53.558;9.970;2022-12-13T06:40:19;32.50;;;17.07;;
14766;SDS011;7475;53.558;9.970;2022-12-13T06:42:45;31.53;;;17.47;;
14766;SDS011;7475;53.558;9.970;2022-12-13T06:45:10;29.10;;;16.50;;
14766;SDS011;7475;53.558;9.970;2022-12-13T06:47:35;26.80;;;15.57;;
14766;SDS011;7475;53.558;9.970;2022-12-13T06:50:01;33.40;;;17.10;;
14766;SDS011;7475;53.558;9.970;2022-12-13T06:52:26;36.67;;;17.87;;
14766;SDS011;7475;53.558;9.970;2022-12-13T06:54:52;29.37;;;16.53;;
14766;SDS011;7475;53.558;9.970;2022-12-13T06:57:18;28.77;;;16.10;;
14766;SDS011;7475;53.558;9.970;2022-12-13T06:59:43;29.53;;;16.67;;
14766;SDS011;7475;53.558;9.970;2022-12-13T07:02:08;30.50;;;16.80;;
14766;SDS011;7475;53.558;9.970;2022-12-13T07:04:34;27.90;;;15.90;;
14766;SDS011;7475;53.558;9.970;2022-12-13T07:06:59;30.07;;;16.63;;
14766;SDS011;7475;53.558;9.970;2022-12-13T07:09:24;29.60;;;16.20;;
14766;SDS011;7475;53.558;9.970;2022-12-13T07:11:50;31.23;;;16.40;;
14766;SDS011;7475;53.558;9.970;2022-12-13T07:14:15;27.30;;;16.17;;
14766;SDS011;7475;53.558;9.970;2022-12-13T07:16:41;32.90;;;17.33;;
14766;SDS011;7475;53.558;9.970;2022-12-13T07:19:08;35.97;;;17.03;;
14766;SDS011;7475;53.558;9.970;2022-12-13T07:21:35;28.97;;;15.13;;
14766;SDS011;7475;53.558;9.970;2022-12-13T07:24:02;35.73;;;16.63;;
14766;SDS011;7475;53.558;9.970;2022-12-13T07:26:27;27.13;;;16.87;;
14766;SDS011;7475;53.558;9.970;2022-12-13T07:28:53;30.80;;;17.23;;
14766;SDS011;7475;53.558;9.970;2022-12-13T07:31:18;33.90;;;16.97;;
14766;SDS011;7475;53.558;9.970;2022-12-13T07:33:44;26.60;;;15.37;;
14766;SDS011;7475;53.558;9.970;2022-12-13T07:36:13;32.87;;;16.83;;
14766;SDS011;7475;53.558;9.970;2022-12-13T07:38:40;27.43;;;15.57;;
14766;SDS011;7475;53.558;9.970;2022-12-13T07:41:05;30.07;;;16.17;;
14766;SDS011;7475;53.558;9.970;2022-12-13T07:43:31;29.77;;;16.93;;
14766;SDS011;7475;53.558;9.970;2022-12-13T07:45:58;32.93;;;17.43;;
14766;SDS011;7475;53.558;9.970;2022-12-13T07:48:24;31.50;;;16.83;;
14766;SDS011;7475;53.558;9.970;2022-12-13T07:50:50;31.60;;;17.47;;
14766;SDS011;7475;53.558;9.970;2022-12-13T07:53:16;36.43;;;18.57;;
14766;SDS011;7475;53.558;9.970;2022-12-13T07:55:41;33.83;;;17.13;;
14766;SDS011;7475;53.558;9.970;2022-12-13T07:58:07;32.50;;;17.73;;
14766;SDS011;7475;53.558;9.970;2022-12-13T08:00:35;27.83;;;16.27;;
14766;SDS011;7475;53.558;9.970;2022-12-13T08:03:01;31.90;;;17.57;;
14766;SDS011;7475;53.558;9.970;2022-12-13T08:05:27;34.30;;;16.50;;
14766;SDS011;7475;53.558;9.970;2022-12-13T08:07:53;30.57;;;17.07;;
14766;SDS011;7475;53.558;9.970;2022-12-13T08:10:18;27.57;;;16.17;;
14766;SDS011;7475;53.558;9.970;2022-12-13T08:12:44;29.27;;;15.27;;
14766;SDS011;7475;53.558;9.970;2022-12-13T08:15:09;30.60;;;16.23;;
14766;SDS011;7475;53.558;9.970;2022-12-13T08:17:35;27.50;;;15.63;;
14766;SDS011;7475;53.558;9.970;2022-12-13T08:20:00;30.80;;;16.17;;
14766;SDS011;7475;53.558;9.970;2022-12-13T08:22:25;28.67;;;15.50;;
14766;SDS011;7475;53.558;9.970;2022-12-13T08:24:51;27.17;;;16.10;;
14766;SDS011;7475;53.558;9.970;2022-12-13T08:27:16;29.83;;;16.47;;
14766;SDS011;7475;53.558;9.970;2022-12-13T08:29:41;30.20;;;15.63;;
14766;SDS011;7475;53.558;9.970;2022-12-13T08:32:08;27.60;;;15.97;;
14766;SDS011;7475;53.558;9.970;2022-12-13T08:34:35;32.30;;;16.10;;
14766;SDS011;7475;53.558;9.970;2022-12-13T08:37:00;29.97;;;17.00;;
14766;SDS011;7475;53.558;9.970;2022-12-13T08:39:26;28.47;;;15.67;;
14766;SDS011;7475;53.558;9.970;2022-12-13T08:41:51;29.17;;;16.60;;
14766;SDS011;7475;53.558;9.970;2022-12-13T08:44:16;37.07;;;18.57;;
14766;SDS011;7475;53.558;9.970;2022-12-13T08:46:42;31.70;;;17.03;;
14766;SDS011;7475;53.558;9.970;2022-12-13T08:49:07;28.90;;;16.30;;
14766;SDS011;7475;53.558;9.970;2022-12-13T08:51:32;30.70;;;16.90;;
14766;SDS011;7475;53.558;9.970;2022-12-13T08:53:57;62.07;;;36.07;;
14766;SDS011;7475;53.558;9.970;2022-12-13T08:56:23;25.03;;;15.10;;
14766;SDS011;7475;53.558;9.970;2022-12-13T08:58:48;30.77;;;16.67;;
14766;SDS011;7475;53.558;9.970;2022-12-13T09:01:15;30.03;;;17.40;;
14766;SDS011;7475;53.558;9.970;2022-12-13T09:03:41;31.50;;;16.40;;
14766;SDS011;7475;53.558;9.970;2022-12-13T09:06:11;29.57;;;15.50;;
14766;SDS011;7475;53.558;9.970;2022-12-13T09:08:38;26.67;;;15.00;;
14766;SDS011;7475;53.558;9.970;2022-12-13T09:11:04;25.77;;;15.33;;
14766;SDS011;7475;53.558;9.970;2022-12-13T09:13:31;28.20;;;14.87;;
14766;SDS011;7475;53.558;9.970;2022-12-13T09:16:02;31.53;;;16.27;;
14766;SDS011;7475;53.558;9.970;2022-12-13T09:18:36;28.20;;;16.13;;
14766;SDS011;7475;53.558;9.970;2022-12-13T09:21:09;30.97;;;16.40;;
14766;SDS011;7475;53.558;9.970;2022-12-13T09:23:36;26.03;;;14.67;;
14766;SDS011;7475;53.558;9.970;2022-12-13T09:26:01;27.70;;;15.53;;
14766;SDS011;7475;53.558;9.970;2022-12-13T09:28:27;29.53;;;16.13;;
14766;SDS011;7475;53.558;9.970;2022-12-13T09:30:54;28.10;;;16.73;;
14766;SDS011;7475;53.558;9.970;2022-12-13T09:33:20;25.13;;;15.33;;
14766;SDS011;7475;53.558;9.970;2022-12-13T09:35:45;29.50;;;16.23;;
14766;SDS011;7475;53.558;9.970;2022-12-13T09:38:11;28.07;;;15.87;;
14766;SDS011;7475;53.558;9.970;2022-12-13T09:40:36;28.80;;;15.30;;
14766;SDS011;7475;53.558;9.970;2022-12-13T09:43:04;28.20;;;15.97;;
14766;SDS011;7475;53.558;9.970;2022-12-13T09:45:31;28.73;;;16.00;;
14766;SDS011;7475;53.558;9.970;2022-12-13T09:47:58;25.80;;;15.50;;
14766;SDS011;7475;53.558;9.970;2022-12-13T09:50:34;26.37;;;15.40;;
14766;SDS011;7475;53.558;9.970;2022-12-13T09:53:00;24.97;;;15.07;;
14766;SDS011;7475;53.558;9.970;2022-12-13T09:55:36;28.83;;;14.80;;
14766;SDS011;7475;53.558;9.970;2022-12-13T10:00:58;25.60;;;15.87;;
14766;SDS011;7475;53.558;9.970;2022-12-13T10:03:24;28.23;;;15.60;;
14766;SDS011;7475;53.558;9.970;2022-12-13T10:05:57;28.53;;;15.77;;
14766;SDS011;7475;53.558;9.970;2022-12-13T10:08:44;26.93;;;15.37;;
14766;SDS011;7475;53.558;9.970;2022-12-13T10:11:13;27.37;;;15.17;;
14766;SDS011;7475;53.558;9.970;2022-12-13T10:13:44;25.83;;;14.57;;
14766;SDS011;7475;53.558;9.970;2022-12-13T10:18:50;34.10;;;15.57;;
14766;SDS011;7475;53.558;9.970;2022-12-13T10:24:46;28.73;;;16.00;;
14766;SDS011;7475;53.558;9.970;2022-12-13T10:26:51;24.13;;;14.00;;
14766;SDS011;7475;53.558;9.970;2022-12-13T10:29:18;23.20;;;14.93;;
14766;SDS011;7475;53.558;9.970;2022-12-13T10:31:44;23.50;;;14.63;;
14766;SDS011;7475;53.558;9.970;2022-12-13T10:34:21;26.73;;;14.87;;
14766;SDS011;7475;53.558;9.970;2022-12-13T10:36:46;27.73;;;14.20;;
14766;SDS011;7475;53.558;9.970;2022-12-13T10:39:16;24.43;;;14.23;;
14766;SDS011;7475;53.558;9.970;2022-12-13T10:42:03;23.80;;;14.10;;
14766;SDS011;7475;53.558;9.970;2022-12-13T10:44:37;23.33;;;13.83;;
14766;SDS011;7475;53.558;9.970;2022-12-13T10:49:38;20.77;;;12.93;;
14766;SDS011;7475;53.558;9.970;2022-12-13T10:52:21;20.03;;;13.37;;
14766;SDS011;7475;53.558;9.970;2022-12-13T10:54:52;17.93;;;10.97;;
14766;SDS011;7475;53.558;9.970;2022-12-13T10:57:18;18.60;;;11.80;;
14766;SDS011;7475;53.558;9.970;2022-12-13T10:59:44;20.73;;;11.70;;
14766;SDS011;7475;53.558;9.970;2022-12-13T11:08:11;21.43;;;11.70;;
14766;SDS011;7475;53.558;9.970;2022-12-13T11:10:44;19.93;;;11.10;;
14766;SDS011;7475;53.558;9.970;2022-12-13T11:13:20;20.23;;;11.53;;
14766;SDS011;7475;53.558;9.970;2022-12-13T11:15:52;21.50;;;11.53;;
14766;SDS011;7475;53.558;9.970;2022-12-13T11:18:20;19.30;;;11.53;;
14766;SDS011;7475;53.558;9.970;2022-12-13T11:21:00;16.00;;;10.60;;
14766;SDS011;7475;53.558;9.970;2022-12-13T11:23:32;15.63;;;10.10;;
14766;SDS011;7475;53.558;9.970;2022-12-13T11:26:14;20.00;;;11.23;;
14766;SDS011;7475;53.558;9.970;2022-12-13T11:39:51;18.73;;;10.87;;
14766;SDS011;7475;53.558;9.970;2022-12-13T11:45:12;16.93;;;10.90;;
14766;SDS011;7475;53.558;9.970;2022-12-13T11:47:48;16.93;;;10.87;;
14766;SDS011;7475;53.558;9.970;2022-12-13T11:50:40;15.63;;;11.13;;
14766;SDS011;7475;53.558;9.970;2022-12-13T11:53:20;17.60;;;11.80;;
14766;SDS011;7475;53.558;9.970;2022-12-13T11:55:54;17.60;;;11.47;;
14766;SDS011;7475;53.558;9.970;2022-12-13T11:58:32;18.90;;;11.40;;
14766;SDS011;7475;53.558;9.970;2022-12-13T12:01:07;17.63;;;11.17;;
14766;SDS011;7475;53.558;9.970;2022-12-13T12:03:39;18.90;;;10.87;;
14766;SDS011;7475;53.558;9.970;2022-12-13T12:08:57;18.63;;;11.13;;
14766;SDS011;7475;53.558;9.970;2022-12-13T12:11:29;19.17;;;10.87;;
14766;SDS011;7475;53.558;9.970;2022-12-13T12:16:54;20.40;;;11.53;;
14766;SDS011;7475;53.558;9.970;2022-12-13T12:19:26;18.90;;;12.17;;
14766;SDS011;7475;53.558;9.970;2022-12-13T12:30:04;22.97;;;12.43;;
14766;SDS011;7475;53.558;9.970;2022-12-13T12:32:41;19.37;;;12.40;;
14766;SDS011;7475;53.558;9.970;2022-12-13T12:35:45;17.67;;;10.30;;
14766;SDS011;7475;53.558;9.970;2022-12-13T12:43:37;21.33;;;11.80;;
14766;SDS011;7475;53.558;9.970;2022-12-13T12:49:04;21.37;;;12.63;;
14766;SDS011;7475;53.558;9.970;2022-12-13T12:51:48;23.87;;;12.37;;
14766;SDS011;7475;53.558;9.970;2022-12-13T12:57:16;22.10;;;13.93;;
14766;SDS011;7475;53.558;9.970;2022-12-13T13:00:16;23.20;;;14.40;;
14766;SDS011;7475;53.558;9.970;2022-12-13T13:08:06;26.53;;;13.50;;
14766;SDS011;7475;53.558;9.970;2022-12-13T13:10:38;21.90;;;13.50;;
14766;SDS011;7475;53.558;9.970;2022-12-13T13:13:31;24.00;;;13.30;;
14766;SDS011;7475;53.558;9.970;2022-12-13T13:15:59;23.03;;;14.03;;
14766;SDS011;7475;53.558;9.970;2022-12-13T13:26:37;23.37;;;13.93;;
14766;SDS011;7475;53.558;9.970;2022-12-13T13:34:41;23.57;;;14.30;;
14766;SDS011;7475;53.558;9.970;2022-12-13T13:39:53;21.63;;;13.90;;
14766;SDS011;7475;53.558;9.970;2022-12-13T13:42:23;27.27;;;14.40;;
14766;SDS011;7475;53.558;9.970;2022-12-13T13:47:40;26.83;;;16.40;;
14766;SDS011;7475;53.558;9.970;2022-12-13T14:00:48;38.00;;;16.70;;
14766;SDS011;7475;53.558;9.970;2022-12-13T14:04:07;23.33;;;15.67;;
14766;SDS011;7475;53.558;9.970;2022-12-13T14:30:57;30.27;;;18.73;;
14766;SDS011;7475;53.558;9.970;2022-12-13T14:33:23;31.03;;;19.47;;
14766;SDS011;7475;53.558;9.970;2022-12-13T14:35:50;30.03;;;19.80;;
14766;SDS011;7475;53.558;9.970;2022-12-13T14:38:21;27.97;;;18.23;;
14766;SDS011;7475;53.558;9.970;2022-12-13T14:40:53;31.03;;;18.83;;
14766;SDS011;7475;53.558;9.970;2022-12-13T14:43:24;29.30;;;18.77;;
14766;SDS011;7475;53.558;9.970;2022-12-13T14:45:54;26.20;;;17.90;;
14766;SDS011;7475;53.558;9.970;2022-12-13T14:48:21;27.63;;;17.80;;
14766;SDS011;7475;53.558;9.970;2022-12-13T14:50:48;27.63;;;17.97;;
14766;SDS011;7475;53.558;9.970;2022-12-13T14:53:29;28.60;;;18.40;;
14766;SDS011;7475;53.558;9.970;2022-12-13T14:56:09;31.47;;;19.00;;
14766;SDS011;7475;53.558;9.970;2022-12-13T14:58:37;28.87;;;18.53;;
14766;SDS011;7475;53.558;9.970;2022-12-13T15:01:21;31.43;;;19.63;;
14766;SDS011;7475;53.558;9.970;2022-12-13T15:06:47;30.33;;;19.10;;
14766;SDS011;7475;53.558;9.970;2022-12-13T15:09:19;29.47;;;19.03;;
14766;SDS011;7475;53.558;9.970;2022-12-13T15:11:44;26.30;;;17.90;;
14766;SDS011;7475;53.558;9.970;2022-12-13T15:14:17;31.53;;;19.50;;
14766;SDS011;7475;53.558;9.970;2022-12-13T15:16:48;30.57;;;19.27;;
14766;SDS011;7475;53.558;9.970;2022-12-13T15:19:16;33.37;;;19.80;;
14766;SDS011;7475;53.558;9.970;2022-12-13T15:21:53;39.97;;;20.90;;
14766;SDS011;7475;53.558;9.970;2022-12-13T15:24:25;28.07;;;19.47;;
14766;SDS011;7475;53.558;9.970;2022-12-13T15:26:56;30.43;;;20.03;;
14766;SDS011;7475;53.558;9.970;2022-12-13T15:29:24;32.10;;;19.73;;
14766;SDS011;7475;53.558;9.970;2022-12-13T15:31:53;33.43;;;19.93;;
14766;SDS011;7475;53.558;9.970;2022-12-13T15:37:00;33.37;;;20.27;;
14766;SDS011;7475;53.558;9.970;2022-12-13T15:39:29;31.37;;;20.03;;
14766;SDS011;7475;53.558;9.970;2022-12-13T15:42:02;37.40;;;20.57;;
14766;SDS011;7475;53.558;9.970;2022-12-13T15:44:30;32.07;;;20.90;;
14766;SDS011;7475;53.558;9.970;2022-12-13T15:47:04;34.80;;;20.20;;
14766;SDS011;7475;53.558;9.970;2022-12-13T15:49:39;36.57;;;21.87;;
14766;SDS011;7475;53.558;9.970;2022-12-13T15:54:39;38.83;;;22.80;;
14766;SDS011;7475;53.558;9.970;2022-12-13T15:57:15;36.70;;;23.87;;
14766;SDS011;7475;53.558;9.970;2022-12-13T15:59:46;37.57;;;23.73;;
14766;SDS011;7475;53.558;9.970;2022-12-13T16:04:40;38.87;;;24.33;;
14766;SDS011;7475;53.558;9.970;2022-12-13T16:07:15;39.53;;;25.83;;
14766;SDS011;7475;53.558;9.970;2022-12-13T16:09:46;45.07;;;25.00;;
14766;SDS011;7475;53.558;9.970;2022-12-13T16:12:17;42.53;;;24.90;;
14766;SDS011;7475;53.558;9.970;2022-12-13T16:14:46;46.67;;;24.47;;
14766;SDS011;7475;53.558;9.970;2022-12-13T16:17:20;45.37;;;23.87;;
14766;SDS011;7475;53.558;9.970;2022-12-13T16:19:54;44.13;;;25.83;;
14766;SDS011;7475;53.558;9.970;2022-12-13T16:22:22;44.60;;;24.53;;
14766;SDS011;7475;53.558;9.970;2022-12-13T16:24:48;48.60;;;26.87;;
14766;SDS011;7475;53.558;9.970;2022-12-13T16:27:15;47.97;;;28.10;;
14766;SDS011;7475;53.558;9.970;2022-12-13T16:29:41;43.83;;;24.63;;
14766;SDS011;7475;53.558;9.970;2022-12-13T16:32:07;46.47;;;26.97;;
14766;SDS011;7475;53.558;9.970;2022-12-13T16:34:32;45.37;;;26.73;;
14766;SDS011;7475;53.558;9.970;2022-12-13T16:36:57;49.07;;;26.93;;
14766;SDS011;7475;53.558;9.970;2022-12-13T16:39:24;50.70;;;26.40;;
14766;SDS011;7475;53.558;9.970;2022-12-13T16:41:50;46.43;;;25.03;;
14766;SDS011;7475;53.558;9.970;2022-12-13T16:44:37;45.80;;;26.20;;
14766;SDS011;7475;53.558;9.970;2022-12-13T16:47:06;47.30;;;25.87;;
14766;SDS011;7475;53.558;9.970;2022-12-13T16:49:33;48.83;;;27.33;;
14766;SDS011;7475;53.558;9.970;2022-12-13T16:51:58;55.63;;;28.33;;
14766;SDS011;7475;53.558;9.970;2022-12-13T16:54:24;54.47;;;27.00;;
14766;SDS011;7475;53.558;9.970;2022-12-13T16:56:50;48.23;;;26.83;;
14766;SDS011;7475;53.558;9.970;2022-12-13T16:59:17;51.73;;;26.80;;
14766;SDS011;7475;53.558;9.970;2022-12-13T17:01:43;47.97;;;27.00;;
14766;SDS011;7475;53.558;9.970;2022-12-13T17:04:12;51.10;;;27.77;;
14766;SDS011;7475;53.558;9.970;2022-12-13T17:06:41;46.47;;;25.87;;